<?xml version="1.0" encoding="UTF-8" standalone="no" ?>
<gpx xmlns="http://www.topografix.com/GPX/1/1" xmlns:xsi="http://www.w3.org/2001/XMLSchema-instance" xsi:schemaLocation="http://www.topografix.com/GPX/1/1 http://www.topografix.com/GPX/1/1/gpx.xsd" version="1.1" creator="VisuGPX - https://www.visugpx.com">
  <metadata>
    <name>La Roche de Hautepierre</name>
    <desc><![CDATA[avec la sista et la zine]]></desc>
  </metadata>
  <wpt lat="47.04586" lon="6.24601">
    <ele>422</ele>
    <name><![CDATA[La Vierge]]></name>
  </wpt>
  <wpt lat="47.04636" lon="6.25417">
    <ele>491</ele>
    <name><![CDATA[La Rappe]]></name>
  </wpt>
  <wpt lat="47.04921" lon="6.26149">
    <ele>587</ele>
    <name><![CDATA[Surcrue]]></name>
  </wpt>
  <wpt lat="47.04767" lon="6.28607">
    <ele>804</ele>
    <name><![CDATA[Hautepierre]]></name>
  </wpt>
  <wpt lat="47.0496" lon="6.27956">
    <ele>822</ele>
    <name><![CDATA[La Roche de Hautepierre]]></name>
  </wpt>
  <wpt lat="47.04788" lon="6.28887">
    <ele>794</ele>
    <name><![CDATA[Calvaire]]></name>
  </wpt>
  <wpt lat="47.0397" lon="6.28976">
    <ele>692</ele>
    <name><![CDATA[La Baume]]></name>
  </wpt>
  <wpt lat="47.04009" lon="6.28484">
    <ele>526</ele>
    <name><![CDATA[Poteau balise]]></name>
  </wpt>
  <wpt lat="47.0402" lon="6.27566">
    <ele>435</ele>
    <name><![CDATA[L'église Saint-Claude]]></name>
  </wpt>
  <wpt lat="47.04099" lon="6.27365">
    <ele>443</ele>
    <name><![CDATA[Rue Robert Dame]]></name>
  </wpt>
  <wpt lat="47.04116" lon="6.26807">
    <ele>469</ele>
    <name><![CDATA[Banc]]></name>
  </wpt>
  <wpt lat="47.0434" lon="6.26203">
    <ele>463</ele>
    <name><![CDATA[Calvaire]]></name>
  </wpt>
  <wpt lat="47.04459" lon="6.24821">
    <ele>386</ele>
    <name><![CDATA[La fontaine du bas]]></name>
  </wpt>
  <trk>
    <name><![CDATA[La Roche de Hautepierre]]></name>
    <trkseg>
      <trkpt lat="47.04352" lon="6.24927">
        <ele>385</ele>
        <time>2019-10-27T09:09:57+01:00</time>
      </trkpt>
      <trkpt lat="47.04347" lon="6.24922">
        <ele>386</ele>
        <time>2019-10-27T09:10:02+01:00</time>
      </trkpt>
      <trkpt lat="47.04333" lon="6.24951">
        <ele>383</ele>
        <time>2019-10-27T09:10:07+01:00</time>
      </trkpt>
      <trkpt lat="47.04337" lon="6.24961">
        <ele>381</ele>
        <time>2019-10-27T09:10:12+01:00</time>
      </trkpt>
      <trkpt lat="47.04353" lon="6.24995">
        <ele>377</ele>
        <time>2019-10-27T09:10:17+01:00</time>
      </trkpt>
      <trkpt lat="47.04361" lon="6.2501">
        <ele>378</ele>
        <time>2019-10-27T09:10:22+01:00</time>
      </trkpt>
      <trkpt lat="47.04381" lon="6.24975">
        <ele>380</ele>
        <time>2019-10-27T09:10:27+01:00</time>
      </trkpt>
      <trkpt lat="47.04395" lon="6.24978">
        <ele>381</ele>
        <time>2019-10-27T09:10:32+01:00</time>
      </trkpt>
      <trkpt lat="47.04404" lon="6.24981">
        <ele>381</ele>
        <time>2019-10-27T09:10:37+01:00</time>
      </trkpt>
      <trkpt lat="47.04412" lon="6.24981">
        <ele>382</ele>
        <time>2019-10-27T09:10:42+01:00</time>
      </trkpt>
      <trkpt lat="47.0442" lon="6.2497">
        <ele>382</ele>
        <time>2019-10-27T09:10:47+01:00</time>
      </trkpt>
      <trkpt lat="47.04443" lon="6.24913">
        <ele>384</ele>
        <time>2019-10-27T09:10:52+01:00</time>
      </trkpt>
      <trkpt lat="47.04447" lon="6.24892">
        <ele>385</ele>
        <time>2019-10-27T09:10:57+01:00</time>
      </trkpt>
      <trkpt lat="47.04451" lon="6.24867">
        <ele>385</ele>
        <time>2019-10-27T09:11:02+01:00</time>
      </trkpt>
      <trkpt lat="47.04457" lon="6.24836">
        <ele>386</ele>
        <time>2019-10-27T09:11:07+01:00</time>
      </trkpt>
      <trkpt lat="47.04459" lon="6.24821">
        <ele>386</ele>
        <time>2019-10-27T09:11:12+01:00</time>
      </trkpt>
      <trkpt lat="47.0446" lon="6.24806">
        <ele>386</ele>
        <time>2019-10-27T09:11:17+01:00</time>
      </trkpt>
      <trkpt lat="47.04462" lon="6.24794">
        <ele>387</ele>
        <time>2019-10-27T09:11:22+01:00</time>
      </trkpt>
      <trkpt lat="47.04467" lon="6.24785">
        <ele>389</ele>
        <time>2019-10-27T09:11:27+01:00</time>
      </trkpt>
      <trkpt lat="47.04475" lon="6.24782">
        <ele>391</ele>
        <time>2019-10-27T09:11:32+01:00</time>
      </trkpt>
      <trkpt lat="47.04479" lon="6.2478">
        <ele>392</ele>
        <time>2019-10-27T09:11:37+01:00</time>
      </trkpt>
      <trkpt lat="47.04486" lon="6.2478">
        <ele>394</ele>
        <time>2019-10-27T09:11:42+01:00</time>
      </trkpt>
      <trkpt lat="47.04495" lon="6.24751">
        <ele>397</ele>
        <time>2019-10-27T09:11:47+01:00</time>
      </trkpt>
      <trkpt lat="47.04511" lon="6.24709">
        <ele>401</ele>
        <time>2019-10-27T09:11:52+01:00</time>
      </trkpt>
      <trkpt lat="47.04517" lon="6.24695">
        <ele>403</ele>
        <time>2019-10-27T09:11:57+01:00</time>
      </trkpt>
      <trkpt lat="47.04532" lon="6.24693">
        <ele>406</ele>
        <time>2019-10-27T09:12:02+01:00</time>
      </trkpt>
      <trkpt lat="47.04538" lon="6.24691">
        <ele>407</ele>
        <time>2019-10-27T09:12:07+01:00</time>
      </trkpt>
      <trkpt lat="47.0456" lon="6.2469">
        <ele>412</ele>
        <time>2019-10-27T09:12:12+01:00</time>
      </trkpt>
      <trkpt lat="47.04603" lon="6.24683">
        <ele>420</ele>
        <time>2019-10-27T09:12:17+01:00</time>
      </trkpt>
      <trkpt lat="47.04602" lon="6.24671">
        <ele>420</ele>
        <time>2019-10-27T09:12:22+01:00</time>
      </trkpt>
      <trkpt lat="47.04596" lon="6.24642">
        <ele>421</ele>
        <time>2019-10-27T09:12:27+01:00</time>
      </trkpt>
      <trkpt lat="47.04591" lon="6.24625">
        <ele>421</ele>
        <time>2019-10-27T09:12:32+01:00</time>
      </trkpt>
      <trkpt lat="47.04589" lon="6.24612">
        <ele>422</ele>
        <time>2019-10-27T09:12:37+01:00</time>
      </trkpt>
      <trkpt lat="47.04586" lon="6.24601">
        <ele>422</ele>
        <time>2019-10-27T09:12:42+01:00</time>
      </trkpt>
      <trkpt lat="47.04586" lon="6.24593">
        <ele>422</ele>
        <time>2019-10-27T09:12:47+01:00</time>
      </trkpt>
      <trkpt lat="47.04591" lon="6.24565">
        <ele>424</ele>
        <time>2019-10-27T09:12:52+01:00</time>
      </trkpt>
      <trkpt lat="47.04607" lon="6.24509">
        <ele>430</ele>
        <time>2019-10-27T09:12:57+01:00</time>
      </trkpt>
      <trkpt lat="47.04615" lon="6.24486">
        <ele>431</ele>
        <time>2019-10-27T09:13:02+01:00</time>
      </trkpt>
      <trkpt lat="47.04623" lon="6.24469">
        <ele>433</ele>
        <time>2019-10-27T09:13:07+01:00</time>
      </trkpt>
      <trkpt lat="47.04631" lon="6.24453">
        <ele>435</ele>
        <time>2019-10-27T09:13:12+01:00</time>
      </trkpt>
      <trkpt lat="47.04636" lon="6.24439">
        <ele>436</ele>
        <time>2019-10-27T09:13:17+01:00</time>
      </trkpt>
      <trkpt lat="47.04628" lon="6.24429">
        <ele>433</ele>
        <time>2019-10-27T09:13:22+01:00</time>
      </trkpt>
      <trkpt lat="47.04637" lon="6.24438">
        <ele>436</ele>
        <time>2019-10-27T09:13:27+01:00</time>
      </trkpt>
      <trkpt lat="47.04633" lon="6.24445">
        <ele>435</ele>
        <time>2019-10-27T09:13:32+01:00</time>
      </trkpt>
      <trkpt lat="47.04628" lon="6.24461">
        <ele>434</ele>
        <time>2019-10-27T09:13:37+01:00</time>
      </trkpt>
      <trkpt lat="47.04619" lon="6.24477">
        <ele>432</ele>
        <time>2019-10-27T09:13:42+01:00</time>
      </trkpt>
      <trkpt lat="47.0461" lon="6.24499">
        <ele>431</ele>
        <time>2019-10-27T09:13:47+01:00</time>
      </trkpt>
      <trkpt lat="47.04596" lon="6.24544">
        <ele>426</ele>
        <time>2019-10-27T09:13:52+01:00</time>
      </trkpt>
      <trkpt lat="47.04589" lon="6.24574">
        <ele>424</ele>
        <time>2019-10-27T09:13:57+01:00</time>
      </trkpt>
      <trkpt lat="47.04586" lon="6.24602">
        <ele>421</ele>
        <time>2019-10-27T09:14:02+01:00</time>
      </trkpt>
      <trkpt lat="47.04606" lon="6.2462">
        <ele>425</ele>
        <time>2019-10-27T09:14:07+01:00</time>
      </trkpt>
      <trkpt lat="47.04655" lon="6.24647">
        <ele>432</ele>
        <time>2019-10-27T09:14:12+01:00</time>
      </trkpt>
      <trkpt lat="47.04684" lon="6.24663">
        <ele>436</ele>
        <time>2019-10-27T09:14:17+01:00</time>
      </trkpt>
      <trkpt lat="47.04696" lon="6.24666">
        <ele>438</ele>
        <time>2019-10-27T09:14:22+01:00</time>
      </trkpt>
      <trkpt lat="47.04714" lon="6.24669">
        <ele>441</ele>
        <time>2019-10-27T09:14:27+01:00</time>
      </trkpt>
      <trkpt lat="47.04731" lon="6.24674">
        <ele>445</ele>
        <time>2019-10-27T09:14:32+01:00</time>
      </trkpt>
      <trkpt lat="47.04738" lon="6.24682">
        <ele>447</ele>
        <time>2019-10-27T09:14:37+01:00</time>
      </trkpt>
      <trkpt lat="47.04737" lon="6.24683">
        <ele>447</ele>
        <time>2019-10-27T09:14:42+01:00</time>
      </trkpt>
      <trkpt lat="47.04738" lon="6.24682">
        <ele>447</ele>
        <time>2019-10-27T09:14:47+01:00</time>
      </trkpt>
      <trkpt lat="47.04742" lon="6.24693">
        <ele>449</ele>
        <time>2019-10-27T09:14:52+01:00</time>
      </trkpt>
      <trkpt lat="47.04744" lon="6.24708">
        <ele>450</ele>
        <time>2019-10-27T09:14:57+01:00</time>
      </trkpt>
      <trkpt lat="47.04737" lon="6.24728">
        <ele>451</ele>
        <time>2019-10-27T09:15:02+01:00</time>
      </trkpt>
      <trkpt lat="47.0473" lon="6.24732">
        <ele>449</ele>
        <time>2019-10-27T09:15:07+01:00</time>
      </trkpt>
      <trkpt lat="47.04721" lon="6.24734">
        <ele>448</ele>
        <time>2019-10-27T09:15:12+01:00</time>
      </trkpt>
      <trkpt lat="47.04698" lon="6.24736">
        <ele>443</ele>
        <time>2019-10-27T09:15:17+01:00</time>
      </trkpt>
      <trkpt lat="47.04687" lon="6.24739">
        <ele>441</ele>
        <time>2019-10-27T09:15:22+01:00</time>
      </trkpt>
      <trkpt lat="47.04678" lon="6.24744">
        <ele>440</ele>
        <time>2019-10-27T09:15:27+01:00</time>
      </trkpt>
      <trkpt lat="47.04663" lon="6.24761">
        <ele>438</ele>
        <time>2019-10-27T09:15:32+01:00</time>
      </trkpt>
      <trkpt lat="47.04659" lon="6.2477">
        <ele>437</ele>
        <time>2019-10-27T09:15:37+01:00</time>
      </trkpt>
      <trkpt lat="47.04656" lon="6.24779">
        <ele>437</ele>
        <time>2019-10-27T09:15:42+01:00</time>
      </trkpt>
      <trkpt lat="47.04656" lon="6.24791">
        <ele>438</ele>
        <time>2019-10-27T09:15:47+01:00</time>
      </trkpt>
      <trkpt lat="47.04669" lon="6.24829">
        <ele>445</ele>
        <time>2019-10-27T09:15:52+01:00</time>
      </trkpt>
      <trkpt lat="47.0468" lon="6.24851">
        <ele>450</ele>
        <time>2019-10-27T09:15:57+01:00</time>
      </trkpt>
      <trkpt lat="47.04708" lon="6.24911">
        <ele>460</ele>
        <time>2019-10-27T09:16:02+01:00</time>
      </trkpt>
      <trkpt lat="47.04717" lon="6.24931">
        <ele>462</ele>
        <time>2019-10-27T09:16:07+01:00</time>
      </trkpt>
      <trkpt lat="47.04713" lon="6.2494">
        <ele>463</ele>
        <time>2019-10-27T09:16:12+01:00</time>
      </trkpt>
      <trkpt lat="47.04704" lon="6.2494">
        <ele>462</ele>
        <time>2019-10-27T09:16:17+01:00</time>
      </trkpt>
      <trkpt lat="47.04683" lon="6.24931">
        <ele>458</ele>
        <time>2019-10-27T09:16:22+01:00</time>
      </trkpt>
      <trkpt lat="47.04679" lon="6.2493">
        <ele>457</ele>
        <time>2019-10-27T09:16:27+01:00</time>
      </trkpt>
      <trkpt lat="47.04676" lon="6.24932">
        <ele>457</ele>
        <time>2019-10-27T09:16:32+01:00</time>
      </trkpt>
      <trkpt lat="47.04675" lon="6.2494">
        <ele>459</ele>
        <time>2019-10-27T09:16:37+01:00</time>
      </trkpt>
      <trkpt lat="47.04677" lon="6.24944">
        <ele>460</ele>
        <time>2019-10-27T09:16:42+01:00</time>
      </trkpt>
      <trkpt lat="47.047" lon="6.24966">
        <ele>464</ele>
        <time>2019-10-27T09:16:47+01:00</time>
      </trkpt>
      <trkpt lat="47.04721" lon="6.24993">
        <ele>466</ele>
        <time>2019-10-27T09:16:52+01:00</time>
      </trkpt>
      <trkpt lat="47.04727" lon="6.25009">
        <ele>467</ele>
        <time>2019-10-27T09:16:57+01:00</time>
      </trkpt>
      <trkpt lat="47.04724" lon="6.25016">
        <ele>467</ele>
        <time>2019-10-27T09:17:02+01:00</time>
      </trkpt>
      <trkpt lat="47.0472" lon="6.25023">
        <ele>468</ele>
        <time>2019-10-27T09:17:07+01:00</time>
      </trkpt>
      <trkpt lat="47.04703" lon="6.2502">
        <ele>469</ele>
        <time>2019-10-27T09:17:12+01:00</time>
      </trkpt>
      <trkpt lat="47.04691" lon="6.25022">
        <ele>469</ele>
        <time>2019-10-27T09:17:17+01:00</time>
      </trkpt>
      <trkpt lat="47.04686" lon="6.25026">
        <ele>470</ele>
        <time>2019-10-27T09:17:22+01:00</time>
      </trkpt>
      <trkpt lat="47.04683" lon="6.25038">
        <ele>470</ele>
        <time>2019-10-27T09:17:27+01:00</time>
      </trkpt>
      <trkpt lat="47.04685" lon="6.25098">
        <ele>472</ele>
        <time>2019-10-27T09:17:32+01:00</time>
      </trkpt>
      <trkpt lat="47.04689" lon="6.25124">
        <ele>471</ele>
        <time>2019-10-27T09:17:37+01:00</time>
      </trkpt>
      <trkpt lat="47.047" lon="6.25157">
        <ele>471</ele>
        <time>2019-10-27T09:17:42+01:00</time>
      </trkpt>
      <trkpt lat="47.04711" lon="6.252">
        <ele>473</ele>
        <time>2019-10-27T09:17:47+01:00</time>
      </trkpt>
      <trkpt lat="47.04714" lon="6.25231">
        <ele>474</ele>
        <time>2019-10-27T09:17:52+01:00</time>
      </trkpt>
      <trkpt lat="47.04715" lon="6.2531">
        <ele>479</ele>
        <time>2019-10-27T09:17:57+01:00</time>
      </trkpt>
      <trkpt lat="47.04714" lon="6.25326">
        <ele>480</ele>
        <time>2019-10-27T09:18:02+01:00</time>
      </trkpt>
      <trkpt lat="47.04709" lon="6.25339">
        <ele>480</ele>
        <time>2019-10-27T09:18:07+01:00</time>
      </trkpt>
      <trkpt lat="47.04697" lon="6.25354">
        <ele>481</ele>
        <time>2019-10-27T09:18:12+01:00</time>
      </trkpt>
      <trkpt lat="47.04669" lon="6.25375">
        <ele>483</ele>
        <time>2019-10-27T09:18:17+01:00</time>
      </trkpt>
      <trkpt lat="47.04653" lon="6.2539">
        <ele>486</ele>
        <time>2019-10-27T09:18:22+01:00</time>
      </trkpt>
      <trkpt lat="47.04644" lon="6.25408">
        <ele>489</ele>
        <time>2019-10-27T09:18:27+01:00</time>
      </trkpt>
      <trkpt lat="47.04636" lon="6.25417">
        <ele>491</ele>
        <time>2019-10-27T09:18:32+01:00</time>
      </trkpt>
      <trkpt lat="47.04627" lon="6.25428">
        <ele>492</ele>
        <time>2019-10-27T09:18:37+01:00</time>
      </trkpt>
      <trkpt lat="47.04624" lon="6.25456">
        <ele>496</ele>
        <time>2019-10-27T09:18:42+01:00</time>
      </trkpt>
      <trkpt lat="47.04621" lon="6.25501">
        <ele>501</ele>
        <time>2019-10-27T09:18:47+01:00</time>
      </trkpt>
      <trkpt lat="47.04618" lon="6.25543">
        <ele>507</ele>
        <time>2019-10-27T09:18:52+01:00</time>
      </trkpt>
      <trkpt lat="47.04617" lon="6.25578">
        <ele>512</ele>
        <time>2019-10-27T09:18:57+01:00</time>
      </trkpt>
      <trkpt lat="47.04616" lon="6.25607">
        <ele>515</ele>
        <time>2019-10-27T09:19:02+01:00</time>
      </trkpt>
      <trkpt lat="47.04617" lon="6.25623">
        <ele>516</ele>
        <time>2019-10-27T09:19:07+01:00</time>
      </trkpt>
      <trkpt lat="47.0462" lon="6.25668">
        <ele>520</ele>
        <time>2019-10-27T09:19:12+01:00</time>
      </trkpt>
      <trkpt lat="47.04627" lon="6.25719">
        <ele>524</ele>
        <time>2019-10-27T09:19:17+01:00</time>
      </trkpt>
      <trkpt lat="47.04638" lon="6.25767">
        <ele>527</ele>
        <time>2019-10-27T09:19:22+01:00</time>
      </trkpt>
      <trkpt lat="47.04652" lon="6.25808">
        <ele>531</ele>
        <time>2019-10-27T09:19:27+01:00</time>
      </trkpt>
      <trkpt lat="47.04677" lon="6.25859">
        <ele>537</ele>
        <time>2019-10-27T09:19:32+01:00</time>
      </trkpt>
      <trkpt lat="47.04701" lon="6.25902">
        <ele>543</ele>
        <time>2019-10-27T09:19:37+01:00</time>
      </trkpt>
      <trkpt lat="47.04717" lon="6.25926">
        <ele>547</ele>
        <time>2019-10-27T09:19:42+01:00</time>
      </trkpt>
      <trkpt lat="47.04739" lon="6.25959">
        <ele>551</ele>
        <time>2019-10-27T09:19:47+01:00</time>
      </trkpt>
      <trkpt lat="47.04768" lon="6.25989">
        <ele>556</ele>
        <time>2019-10-27T09:19:52+01:00</time>
      </trkpt>
      <trkpt lat="47.04798" lon="6.26031">
        <ele>562</ele>
        <time>2019-10-27T09:19:57+01:00</time>
      </trkpt>
      <trkpt lat="47.0486" lon="6.26084">
        <ele>576</ele>
        <time>2019-10-27T09:20:02+01:00</time>
      </trkpt>
      <trkpt lat="47.04885" lon="6.26103">
        <ele>579</ele>
        <time>2019-10-27T09:20:07+01:00</time>
      </trkpt>
      <trkpt lat="47.04914" lon="6.26137">
        <ele>585</ele>
        <time>2019-10-27T09:20:12+01:00</time>
      </trkpt>
      <trkpt lat="47.04921" lon="6.26149">
        <ele>587</ele>
        <time>2019-10-27T09:20:17+01:00</time>
      </trkpt>
      <trkpt lat="47.04937" lon="6.26162">
        <ele>588</ele>
        <time>2019-10-27T09:20:22+01:00</time>
      </trkpt>
      <trkpt lat="47.04972" lon="6.26205">
        <ele>590</ele>
        <time>2019-10-27T09:20:27+01:00</time>
      </trkpt>
      <trkpt lat="47.05021" lon="6.26265">
        <ele>595</ele>
        <time>2019-10-27T09:20:32+01:00</time>
      </trkpt>
      <trkpt lat="47.05054" lon="6.26311">
        <ele>597</ele>
        <time>2019-10-27T09:20:37+01:00</time>
      </trkpt>
      <trkpt lat="47.05072" lon="6.26341">
        <ele>600</ele>
        <time>2019-10-27T09:20:42+01:00</time>
      </trkpt>
      <trkpt lat="47.05091" lon="6.26377">
        <ele>600</ele>
        <time>2019-10-27T09:20:47+01:00</time>
      </trkpt>
      <trkpt lat="47.05111" lon="6.26432">
        <ele>596</ele>
        <time>2019-10-27T09:20:52+01:00</time>
      </trkpt>
      <trkpt lat="47.05126" lon="6.26482">
        <ele>595</ele>
        <time>2019-10-27T09:20:57+01:00</time>
      </trkpt>
      <trkpt lat="47.05131" lon="6.26516">
        <ele>596</ele>
        <time>2019-10-27T09:21:02+01:00</time>
      </trkpt>
      <trkpt lat="47.05134" lon="6.26536">
        <ele>597</ele>
        <time>2019-10-27T09:21:07+01:00</time>
      </trkpt>
      <trkpt lat="47.05151" lon="6.26577">
        <ele>600</ele>
        <time>2019-10-27T09:21:12+01:00</time>
      </trkpt>
      <trkpt lat="47.05153" lon="6.26619">
        <ele>605</ele>
        <time>2019-10-27T09:21:17+01:00</time>
      </trkpt>
      <trkpt lat="47.05153" lon="6.2671">
        <ele>616</ele>
        <time>2019-10-27T09:21:22+01:00</time>
      </trkpt>
      <trkpt lat="47.05153" lon="6.26732">
        <ele>619</ele>
        <time>2019-10-27T09:21:27+01:00</time>
      </trkpt>
      <trkpt lat="47.05145" lon="6.26756">
        <ele>623</ele>
        <time>2019-10-27T09:21:32+01:00</time>
      </trkpt>
      <trkpt lat="47.05144" lon="6.26773">
        <ele>626</ele>
        <time>2019-10-27T09:21:37+01:00</time>
      </trkpt>
      <trkpt lat="47.05144" lon="6.2681">
        <ele>634</ele>
        <time>2019-10-27T09:21:42+01:00</time>
      </trkpt>
      <trkpt lat="47.05154" lon="6.2683">
        <ele>637</ele>
        <time>2019-10-27T09:21:47+01:00</time>
      </trkpt>
      <trkpt lat="47.0516" lon="6.26844">
        <ele>639</ele>
        <time>2019-10-27T09:21:52+01:00</time>
      </trkpt>
      <trkpt lat="47.05162" lon="6.26855">
        <ele>640</ele>
        <time>2019-10-27T09:21:57+01:00</time>
      </trkpt>
      <trkpt lat="47.05165" lon="6.26878">
        <ele>642</ele>
        <time>2019-10-27T09:22:02+01:00</time>
      </trkpt>
      <trkpt lat="47.05171" lon="6.26903">
        <ele>645</ele>
        <time>2019-10-27T09:22:07+01:00</time>
      </trkpt>
      <trkpt lat="47.05178" lon="6.2695">
        <ele>650</ele>
        <time>2019-10-27T09:22:12+01:00</time>
      </trkpt>
      <trkpt lat="47.05169" lon="6.27016">
        <ele>654</ele>
        <time>2019-10-27T09:22:17+01:00</time>
      </trkpt>
      <trkpt lat="47.05165" lon="6.27043">
        <ele>656</ele>
        <time>2019-10-27T09:22:22+01:00</time>
      </trkpt>
      <trkpt lat="47.05155" lon="6.27084">
        <ele>659</ele>
        <time>2019-10-27T09:22:27+01:00</time>
      </trkpt>
      <trkpt lat="47.05145" lon="6.27112">
        <ele>661</ele>
        <time>2019-10-27T09:22:32+01:00</time>
      </trkpt>
      <trkpt lat="47.05135" lon="6.2715">
        <ele>664</ele>
        <time>2019-10-27T09:22:37+01:00</time>
      </trkpt>
      <trkpt lat="47.05133" lon="6.27181">
        <ele>667</ele>
        <time>2019-10-27T09:22:42+01:00</time>
      </trkpt>
      <trkpt lat="47.05125" lon="6.27275">
        <ele>678</ele>
        <time>2019-10-27T09:22:47+01:00</time>
      </trkpt>
      <trkpt lat="47.0512" lon="6.27321">
        <ele>683</ele>
        <time>2019-10-27T09:22:52+01:00</time>
      </trkpt>
      <trkpt lat="47.05118" lon="6.27363">
        <ele>687</ele>
        <time>2019-10-27T09:22:57+01:00</time>
      </trkpt>
      <trkpt lat="47.05114" lon="6.27446">
        <ele>695</ele>
        <time>2019-10-27T09:23:02+01:00</time>
      </trkpt>
      <trkpt lat="47.0511" lon="6.27483">
        <ele>699</ele>
        <time>2019-10-27T09:23:07+01:00</time>
      </trkpt>
      <trkpt lat="47.05099" lon="6.27523">
        <ele>704</ele>
        <time>2019-10-27T09:23:12+01:00</time>
      </trkpt>
      <trkpt lat="47.05093" lon="6.27551">
        <ele>710</ele>
        <time>2019-10-27T09:23:17+01:00</time>
      </trkpt>
      <trkpt lat="47.05071" lon="6.276">
        <ele>716</ele>
        <time>2019-10-27T09:23:22+01:00</time>
      </trkpt>
      <trkpt lat="47.05063" lon="6.2762">
        <ele>719</ele>
        <time>2019-10-27T09:23:27+01:00</time>
      </trkpt>
      <trkpt lat="47.05043" lon="6.27656">
        <ele>724</ele>
        <time>2019-10-27T09:23:32+01:00</time>
      </trkpt>
      <trkpt lat="47.05019" lon="6.2769">
        <ele>728</ele>
        <time>2019-10-27T09:23:37+01:00</time>
      </trkpt>
      <trkpt lat="47.04977" lon="6.27743">
        <ele>732</ele>
        <time>2019-10-27T09:23:42+01:00</time>
      </trkpt>
      <trkpt lat="47.04956" lon="6.27768">
        <ele>734</ele>
        <time>2019-10-27T09:23:47+01:00</time>
      </trkpt>
      <trkpt lat="47.0494" lon="6.27793">
        <ele>740</ele>
        <time>2019-10-27T09:23:52+01:00</time>
      </trkpt>
      <trkpt lat="47.04919" lon="6.27828">
        <ele>747</ele>
        <time>2019-10-27T09:23:57+01:00</time>
      </trkpt>
      <trkpt lat="47.04886" lon="6.27868">
        <ele>752</ele>
        <time>2019-10-27T09:24:02+01:00</time>
      </trkpt>
      <trkpt lat="47.04865" lon="6.27889">
        <ele>753</ele>
        <time>2019-10-27T09:24:07+01:00</time>
      </trkpt>
      <trkpt lat="47.0484" lon="6.27903">
        <ele>751</ele>
        <time>2019-10-27T09:24:12+01:00</time>
      </trkpt>
      <trkpt lat="47.04826" lon="6.27906">
        <ele>745</ele>
        <time>2019-10-27T09:24:17+01:00</time>
      </trkpt>
      <trkpt lat="47.04819" lon="6.27916">
        <ele>745</ele>
        <time>2019-10-27T09:24:22+01:00</time>
      </trkpt>
      <trkpt lat="47.04802" lon="6.27992">
        <ele>754</ele>
        <time>2019-10-27T09:24:27+01:00</time>
      </trkpt>
      <trkpt lat="47.0479" lon="6.28072">
        <ele>767</ele>
        <time>2019-10-27T09:24:32+01:00</time>
      </trkpt>
      <trkpt lat="47.04761" lon="6.28184">
        <ele>774</ele>
        <time>2019-10-27T09:24:37+01:00</time>
      </trkpt>
      <trkpt lat="47.04747" lon="6.2824">
        <ele>774</ele>
        <time>2019-10-27T09:24:42+01:00</time>
      </trkpt>
      <trkpt lat="47.0474" lon="6.2825">
        <ele>772</ele>
        <time>2019-10-27T09:24:47+01:00</time>
      </trkpt>
      <trkpt lat="47.04747" lon="6.28277">
        <ele>778</ele>
        <time>2019-10-27T09:24:52+01:00</time>
      </trkpt>
      <trkpt lat="47.04766" lon="6.28337">
        <ele>790</ele>
        <time>2019-10-27T09:24:57+01:00</time>
      </trkpt>
      <trkpt lat="47.04773" lon="6.28352">
        <ele>793</ele>
        <time>2019-10-27T09:25:02+01:00</time>
      </trkpt>
      <trkpt lat="47.04777" lon="6.2837">
        <ele>794</ele>
        <time>2019-10-27T09:25:07+01:00</time>
      </trkpt>
      <trkpt lat="47.04786" lon="6.28414">
        <ele>797</ele>
        <time>2019-10-27T09:25:12+01:00</time>
      </trkpt>
      <trkpt lat="47.04793" lon="6.28452">
        <ele>800</ele>
        <time>2019-10-27T09:25:17+01:00</time>
      </trkpt>
      <trkpt lat="47.04794" lon="6.28477">
        <ele>801</ele>
        <time>2019-10-27T09:25:22+01:00</time>
      </trkpt>
      <trkpt lat="47.04792" lon="6.28521">
        <ele>803</ele>
        <time>2019-10-27T09:25:27+01:00</time>
      </trkpt>
      <trkpt lat="47.04788" lon="6.28541">
        <ele>804</ele>
        <time>2019-10-27T09:25:32+01:00</time>
      </trkpt>
      <trkpt lat="47.04781" lon="6.28562">
        <ele>804</ele>
        <time>2019-10-27T09:25:37+01:00</time>
      </trkpt>
      <trkpt lat="47.04767" lon="6.28607">
        <ele>804</ele>
        <time>2019-10-27T09:25:42+01:00</time>
      </trkpt>
      <trkpt lat="47.04778" lon="6.28617">
        <ele>805</ele>
        <time>2019-10-27T09:25:47+01:00</time>
      </trkpt>
      <trkpt lat="47.04793" lon="6.28608">
        <ele>808</ele>
        <time>2019-10-27T09:25:52+01:00</time>
      </trkpt>
      <trkpt lat="47.04803" lon="6.28606">
        <ele>809</ele>
        <time>2019-10-27T09:25:57+01:00</time>
      </trkpt>
      <trkpt lat="47.04826" lon="6.28606">
        <ele>812</ele>
        <time>2019-10-27T09:26:02+01:00</time>
      </trkpt>
      <trkpt lat="47.04839" lon="6.28617">
        <ele>814</ele>
        <time>2019-10-27T09:26:07+01:00</time>
      </trkpt>
      <trkpt lat="47.0485" lon="6.28629">
        <ele>817</ele>
        <time>2019-10-27T09:26:12+01:00</time>
      </trkpt>
      <trkpt lat="47.04871" lon="6.28641">
        <ele>822</ele>
        <time>2019-10-27T09:26:17+01:00</time>
      </trkpt>
      <trkpt lat="47.04892" lon="6.28649">
        <ele>827</ele>
        <time>2019-10-27T09:26:22+01:00</time>
      </trkpt>
      <trkpt lat="47.04906" lon="6.28656">
        <ele>829</ele>
        <time>2019-10-27T09:26:27+01:00</time>
      </trkpt>
      <trkpt lat="47.0492" lon="6.28662">
        <ele>832</ele>
        <time>2019-10-27T09:26:32+01:00</time>
      </trkpt>
      <trkpt lat="47.04928" lon="6.28663">
        <ele>834</ele>
        <time>2019-10-27T09:26:37+01:00</time>
      </trkpt>
      <trkpt lat="47.0493" lon="6.2866">
        <ele>835</ele>
        <time>2019-10-27T09:26:42+01:00</time>
      </trkpt>
      <trkpt lat="47.0493" lon="6.28647">
        <ele>837</ele>
        <time>2019-10-27T09:26:47+01:00</time>
      </trkpt>
      <trkpt lat="47.04932" lon="6.28607">
        <ele>841</ele>
        <time>2019-10-27T09:26:52+01:00</time>
      </trkpt>
      <trkpt lat="47.04932" lon="6.28596">
        <ele>842</ele>
        <time>2019-10-27T09:26:57+01:00</time>
      </trkpt>
      <trkpt lat="47.04931" lon="6.28576">
        <ele>843</ele>
        <time>2019-10-27T09:27:02+01:00</time>
      </trkpt>
      <trkpt lat="47.04937" lon="6.28544">
        <ele>845</ele>
        <time>2019-10-27T09:27:07+01:00</time>
      </trkpt>
      <trkpt lat="47.04943" lon="6.28532">
        <ele>847</ele>
        <time>2019-10-27T09:27:12+01:00</time>
      </trkpt>
      <trkpt lat="47.04944" lon="6.2852">
        <ele>847</ele>
        <time>2019-10-27T09:27:17+01:00</time>
      </trkpt>
      <trkpt lat="47.04946" lon="6.28507">
        <ele>848</ele>
        <time>2019-10-27T09:27:22+01:00</time>
      </trkpt>
      <trkpt lat="47.04948" lon="6.28497">
        <ele>849</ele>
        <time>2019-10-27T09:27:27+01:00</time>
      </trkpt>
      <trkpt lat="47.04944" lon="6.28475">
        <ele>849</ele>
        <time>2019-10-27T09:27:32+01:00</time>
      </trkpt>
      <trkpt lat="47.04935" lon="6.28418">
        <ele>851</ele>
        <time>2019-10-27T09:27:37+01:00</time>
      </trkpt>
      <trkpt lat="47.04932" lon="6.28377">
        <ele>853</ele>
        <time>2019-10-27T09:27:42+01:00</time>
      </trkpt>
      <trkpt lat="47.04926" lon="6.28354">
        <ele>854</ele>
        <time>2019-10-27T09:27:47+01:00</time>
      </trkpt>
      <trkpt lat="47.04922" lon="6.28308">
        <ele>857</ele>
        <time>2019-10-27T09:27:52+01:00</time>
      </trkpt>
      <trkpt lat="47.04922" lon="6.28264">
        <ele>860</ele>
        <time>2019-10-27T09:27:57+01:00</time>
      </trkpt>
      <trkpt lat="47.04931" lon="6.28195">
        <ele>858</ele>
        <time>2019-10-27T09:28:02+01:00</time>
      </trkpt>
      <trkpt lat="47.04939" lon="6.28173">
        <ele>859</ele>
        <time>2019-10-27T09:28:07+01:00</time>
      </trkpt>
      <trkpt lat="47.04949" lon="6.28125">
        <ele>855</ele>
        <time>2019-10-27T09:28:12+01:00</time>
      </trkpt>
      <trkpt lat="47.04958" lon="6.28074">
        <ele>851</ele>
        <time>2019-10-27T09:28:17+01:00</time>
      </trkpt>
      <trkpt lat="47.04961" lon="6.2805">
        <ele>848</ele>
        <time>2019-10-27T09:28:22+01:00</time>
      </trkpt>
      <trkpt lat="47.04962" lon="6.28036">
        <ele>846</ele>
        <time>2019-10-27T09:28:27+01:00</time>
      </trkpt>
      <trkpt lat="47.0496" lon="6.27956">
        <ele>822</ele>
        <time>2019-10-27T09:28:32+01:00</time>
      </trkpt>
      <trkpt lat="47.04961" lon="6.27973">
        <ele>829</ele>
        <time>2019-10-27T09:28:37+01:00</time>
      </trkpt>
      <trkpt lat="47.04961" lon="6.27984">
        <ele>833</ele>
        <time>2019-10-27T09:28:42+01:00</time>
      </trkpt>
      <trkpt lat="47.04961" lon="6.27998">
        <ele>839</ele>
        <time>2019-10-27T09:28:47+01:00</time>
      </trkpt>
      <trkpt lat="47.04962" lon="6.28036">
        <ele>846</ele>
        <time>2019-10-27T09:28:52+01:00</time>
      </trkpt>
      <trkpt lat="47.0496" lon="6.28064">
        <ele>850</ele>
        <time>2019-10-27T09:28:57+01:00</time>
      </trkpt>
      <trkpt lat="47.04953" lon="6.28102">
        <ele>853</ele>
        <time>2019-10-27T09:29:02+01:00</time>
      </trkpt>
      <trkpt lat="47.04944" lon="6.28151">
        <ele>857</ele>
        <time>2019-10-27T09:29:07+01:00</time>
      </trkpt>
      <trkpt lat="47.04939" lon="6.28173">
        <ele>859</ele>
        <time>2019-10-27T09:29:12+01:00</time>
      </trkpt>
      <trkpt lat="47.04931" lon="6.28196">
        <ele>859</ele>
        <time>2019-10-27T09:29:17+01:00</time>
      </trkpt>
      <trkpt lat="47.04928" lon="6.2822">
        <ele>860</ele>
        <time>2019-10-27T09:29:22+01:00</time>
      </trkpt>
      <trkpt lat="47.04923" lon="6.28254">
        <ele>861</ele>
        <time>2019-10-27T09:29:27+01:00</time>
      </trkpt>
      <trkpt lat="47.04922" lon="6.28265">
        <ele>860</ele>
        <time>2019-10-27T09:29:32+01:00</time>
      </trkpt>
      <trkpt lat="47.04922" lon="6.28309">
        <ele>857</ele>
        <time>2019-10-27T09:29:37+01:00</time>
      </trkpt>
      <trkpt lat="47.04925" lon="6.28346">
        <ele>855</ele>
        <time>2019-10-27T09:29:42+01:00</time>
      </trkpt>
      <trkpt lat="47.04926" lon="6.28354">
        <ele>854</ele>
        <time>2019-10-27T09:29:47+01:00</time>
      </trkpt>
      <trkpt lat="47.04932" lon="6.28377">
        <ele>853</ele>
        <time>2019-10-27T09:29:52+01:00</time>
      </trkpt>
      <trkpt lat="47.04934" lon="6.28411">
        <ele>851</ele>
        <time>2019-10-27T09:29:57+01:00</time>
      </trkpt>
      <trkpt lat="47.04942" lon="6.28459">
        <ele>849</ele>
        <time>2019-10-27T09:30:02+01:00</time>
      </trkpt>
      <trkpt lat="47.04948" lon="6.28502">
        <ele>849</ele>
        <time>2019-10-27T09:30:07+01:00</time>
      </trkpt>
      <trkpt lat="47.04944" lon="6.28513">
        <ele>848</ele>
        <time>2019-10-27T09:30:12+01:00</time>
      </trkpt>
      <trkpt lat="47.04944" lon="6.28527">
        <ele>847</ele>
        <time>2019-10-27T09:30:17+01:00</time>
      </trkpt>
      <trkpt lat="47.0494" lon="6.28537">
        <ele>846</ele>
        <time>2019-10-27T09:30:22+01:00</time>
      </trkpt>
      <trkpt lat="47.04935" lon="6.28551">
        <ele>845</ele>
        <time>2019-10-27T09:30:27+01:00</time>
      </trkpt>
      <trkpt lat="47.04931" lon="6.28575">
        <ele>843</ele>
        <time>2019-10-27T09:30:32+01:00</time>
      </trkpt>
      <trkpt lat="47.04932" lon="6.28596">
        <ele>842</ele>
        <time>2019-10-27T09:30:37+01:00</time>
      </trkpt>
      <trkpt lat="47.0493" lon="6.28642">
        <ele>837</ele>
        <time>2019-10-27T09:30:42+01:00</time>
      </trkpt>
      <trkpt lat="47.04929" lon="6.28662">
        <ele>835</ele>
        <time>2019-10-27T09:30:47+01:00</time>
      </trkpt>
      <trkpt lat="47.04926" lon="6.28663">
        <ele>834</ele>
        <time>2019-10-27T09:30:52+01:00</time>
      </trkpt>
      <trkpt lat="47.04914" lon="6.2866">
        <ele>831</ele>
        <time>2019-10-27T09:30:57+01:00</time>
      </trkpt>
      <trkpt lat="47.04892" lon="6.28649">
        <ele>827</ele>
        <time>2019-10-27T09:31:02+01:00</time>
      </trkpt>
      <trkpt lat="47.04871" lon="6.28642">
        <ele>822</ele>
        <time>2019-10-27T09:31:07+01:00</time>
      </trkpt>
      <trkpt lat="47.0485" lon="6.28629">
        <ele>817</ele>
        <time>2019-10-27T09:31:12+01:00</time>
      </trkpt>
      <trkpt lat="47.04839" lon="6.28617">
        <ele>814</ele>
        <time>2019-10-27T09:31:17+01:00</time>
      </trkpt>
      <trkpt lat="47.04826" lon="6.28606">
        <ele>812</ele>
        <time>2019-10-27T09:31:22+01:00</time>
      </trkpt>
      <trkpt lat="47.04814" lon="6.28606">
        <ele>811</ele>
        <time>2019-10-27T09:31:27+01:00</time>
      </trkpt>
      <trkpt lat="47.04796" lon="6.28607">
        <ele>808</ele>
        <time>2019-10-27T09:31:32+01:00</time>
      </trkpt>
      <trkpt lat="47.04789" lon="6.2861">
        <ele>807</ele>
        <time>2019-10-27T09:31:37+01:00</time>
      </trkpt>
      <trkpt lat="47.04778" lon="6.28617">
        <ele>805</ele>
        <time>2019-10-27T09:31:42+01:00</time>
      </trkpt>
      <trkpt lat="47.0478" lon="6.28621">
        <ele>806</ele>
        <time>2019-10-27T09:31:47+01:00</time>
      </trkpt>
      <trkpt lat="47.04784" lon="6.28632">
        <ele>806</ele>
        <time>2019-10-27T09:31:52+01:00</time>
      </trkpt>
      <trkpt lat="47.04793" lon="6.28672">
        <ele>806</ele>
        <time>2019-10-27T09:31:57+01:00</time>
      </trkpt>
      <trkpt lat="47.048" lon="6.28698">
        <ele>805</ele>
        <time>2019-10-27T09:32:02+01:00</time>
      </trkpt>
      <trkpt lat="47.04787" lon="6.28709">
        <ele>803</ele>
        <time>2019-10-27T09:32:07+01:00</time>
      </trkpt>
      <trkpt lat="47.04787" lon="6.28709">
        <ele>803</ele>
        <time>2019-10-27T09:32:12+01:00</time>
      </trkpt>
      <trkpt lat="47.04761" lon="6.2873">
        <ele>799</ele>
        <time>2019-10-27T09:32:17+01:00</time>
      </trkpt>
      <trkpt lat="47.04771" lon="6.2876">
        <ele>799</ele>
        <time>2019-10-27T09:32:22+01:00</time>
      </trkpt>
      <trkpt lat="47.04762" lon="6.2873">
        <ele>799</ele>
        <time>2019-10-27T09:32:27+01:00</time>
      </trkpt>
      <trkpt lat="47.04745" lon="6.28742">
        <ele>796</ele>
        <time>2019-10-27T09:32:32+01:00</time>
      </trkpt>
      <trkpt lat="47.04764" lon="6.28807">
        <ele>795</ele>
        <time>2019-10-27T09:32:37+01:00</time>
      </trkpt>
      <trkpt lat="47.04785" lon="6.28864">
        <ele>795</ele>
        <time>2019-10-27T09:32:42+01:00</time>
      </trkpt>
      <trkpt lat="47.04788" lon="6.28887">
        <ele>794</ele>
        <time>2019-10-27T09:32:47+01:00</time>
      </trkpt>
      <trkpt lat="47.04778" lon="6.28909">
        <ele>792</ele>
        <time>2019-10-27T09:32:52+01:00</time>
      </trkpt>
      <trkpt lat="47.04778" lon="6.28924">
        <ele>791</ele>
        <time>2019-10-27T09:32:57+01:00</time>
      </trkpt>
      <trkpt lat="47.04768" lon="6.28942">
        <ele>790</ele>
        <time>2019-10-27T09:33:02+01:00</time>
      </trkpt>
      <trkpt lat="47.04761" lon="6.28968">
        <ele>789</ele>
        <time>2019-10-27T09:33:07+01:00</time>
      </trkpt>
      <trkpt lat="47.0476" lon="6.28995">
        <ele>789</ele>
        <time>2019-10-27T09:33:12+01:00</time>
      </trkpt>
      <trkpt lat="47.04755" lon="6.2901">
        <ele>788</ele>
        <time>2019-10-27T09:33:17+01:00</time>
      </trkpt>
      <trkpt lat="47.04744" lon="6.29021">
        <ele>787</ele>
        <time>2019-10-27T09:33:22+01:00</time>
      </trkpt>
      <trkpt lat="47.04729" lon="6.29033">
        <ele>785</ele>
        <time>2019-10-27T09:33:27+01:00</time>
      </trkpt>
      <trkpt lat="47.04711" lon="6.29037">
        <ele>782</ele>
        <time>2019-10-27T09:33:32+01:00</time>
      </trkpt>
      <trkpt lat="47.04693" lon="6.29049">
        <ele>780</ele>
        <time>2019-10-27T09:33:37+01:00</time>
      </trkpt>
      <trkpt lat="47.04688" lon="6.29064">
        <ele>780</ele>
        <time>2019-10-27T09:33:42+01:00</time>
      </trkpt>
      <trkpt lat="47.04678" lon="6.29079">
        <ele>780</ele>
        <time>2019-10-27T09:33:47+01:00</time>
      </trkpt>
      <trkpt lat="47.04662" lon="6.29077">
        <ele>777</ele>
        <time>2019-10-27T09:33:52+01:00</time>
      </trkpt>
      <trkpt lat="47.04656" lon="6.29084">
        <ele>777</ele>
        <time>2019-10-27T09:33:57+01:00</time>
      </trkpt>
      <trkpt lat="47.04626" lon="6.29113">
        <ele>771</ele>
        <time>2019-10-27T09:34:02+01:00</time>
      </trkpt>
      <trkpt lat="47.04606" lon="6.29116">
        <ele>768</ele>
        <time>2019-10-27T09:34:07+01:00</time>
      </trkpt>
      <trkpt lat="47.04594" lon="6.29131">
        <ele>767</ele>
        <time>2019-10-27T09:34:12+01:00</time>
      </trkpt>
      <trkpt lat="47.04592" lon="6.29144">
        <ele>768</ele>
        <time>2019-10-27T09:34:17+01:00</time>
      </trkpt>
      <trkpt lat="47.04586" lon="6.29155">
        <ele>769</ele>
        <time>2019-10-27T09:34:22+01:00</time>
      </trkpt>
      <trkpt lat="47.0457" lon="6.29177">
        <ele>768</ele>
        <time>2019-10-27T09:34:27+01:00</time>
      </trkpt>
      <trkpt lat="47.04539" lon="6.29189">
        <ele>764</ele>
        <time>2019-10-27T09:34:32+01:00</time>
      </trkpt>
      <trkpt lat="47.04528" lon="6.29194">
        <ele>762</ele>
        <time>2019-10-27T09:34:37+01:00</time>
      </trkpt>
      <trkpt lat="47.04519" lon="6.29195">
        <ele>761</ele>
        <time>2019-10-27T09:34:42+01:00</time>
      </trkpt>
      <trkpt lat="47.04504" lon="6.29202">
        <ele>759</ele>
        <time>2019-10-27T09:34:47+01:00</time>
      </trkpt>
      <trkpt lat="47.04488" lon="6.29213">
        <ele>757</ele>
        <time>2019-10-27T09:34:52+01:00</time>
      </trkpt>
      <trkpt lat="47.04475" lon="6.2921">
        <ele>754</ele>
        <time>2019-10-27T09:34:57+01:00</time>
      </trkpt>
      <trkpt lat="47.04465" lon="6.29202">
        <ele>752</ele>
        <time>2019-10-27T09:35:02+01:00</time>
      </trkpt>
      <trkpt lat="47.04455" lon="6.292">
        <ele>750</ele>
        <time>2019-10-27T09:35:07+01:00</time>
      </trkpt>
      <trkpt lat="47.04433" lon="6.29182">
        <ele>745</ele>
        <time>2019-10-27T09:35:12+01:00</time>
      </trkpt>
      <trkpt lat="47.04425" lon="6.29163">
        <ele>742</ele>
        <time>2019-10-27T09:35:17+01:00</time>
      </trkpt>
      <trkpt lat="47.04389" lon="6.29156">
        <ele>737</ele>
        <time>2019-10-27T09:35:22+01:00</time>
      </trkpt>
      <trkpt lat="47.04351" lon="6.29194">
        <ele>738</ele>
        <time>2019-10-27T09:35:27+01:00</time>
      </trkpt>
      <trkpt lat="47.0431" lon="6.29182">
        <ele>734</ele>
        <time>2019-10-27T09:35:32+01:00</time>
      </trkpt>
      <trkpt lat="47.04283" lon="6.29162">
        <ele>731</ele>
        <time>2019-10-27T09:35:37+01:00</time>
      </trkpt>
      <trkpt lat="47.04267" lon="6.29134">
        <ele>728</ele>
        <time>2019-10-27T09:35:42+01:00</time>
      </trkpt>
      <trkpt lat="47.04254" lon="6.291">
        <ele>726</ele>
        <time>2019-10-27T09:35:47+01:00</time>
      </trkpt>
      <trkpt lat="47.04233" lon="6.29065">
        <ele>720</ele>
        <time>2019-10-27T09:35:52+01:00</time>
      </trkpt>
      <trkpt lat="47.0422" lon="6.29076">
        <ele>721</ele>
        <time>2019-10-27T09:35:57+01:00</time>
      </trkpt>
      <trkpt lat="47.04206" lon="6.29094">
        <ele>723</ele>
        <time>2019-10-27T09:36:02+01:00</time>
      </trkpt>
      <trkpt lat="47.04188" lon="6.2913">
        <ele>726</ele>
        <time>2019-10-27T09:36:07+01:00</time>
      </trkpt>
      <trkpt lat="47.04168" lon="6.29145">
        <ele>728</ele>
        <time>2019-10-27T09:36:12+01:00</time>
      </trkpt>
      <trkpt lat="47.04157" lon="6.29137">
        <ele>729</ele>
        <time>2019-10-27T09:36:17+01:00</time>
      </trkpt>
      <trkpt lat="47.04141" lon="6.29136">
        <ele>732</ele>
        <time>2019-10-27T09:36:22+01:00</time>
      </trkpt>
      <trkpt lat="47.04124" lon="6.29127">
        <ele>734</ele>
        <time>2019-10-27T09:36:27+01:00</time>
      </trkpt>
      <trkpt lat="47.04111" lon="6.29106">
        <ele>732</ele>
        <time>2019-10-27T09:36:32+01:00</time>
      </trkpt>
      <trkpt lat="47.04099" lon="6.29101">
        <ele>733</ele>
        <time>2019-10-27T09:36:37+01:00</time>
      </trkpt>
      <trkpt lat="47.04083" lon="6.29076">
        <ele>729</ele>
        <time>2019-10-27T09:36:42+01:00</time>
      </trkpt>
      <trkpt lat="47.04065" lon="6.29039">
        <ele>715</ele>
        <time>2019-10-27T09:36:47+01:00</time>
      </trkpt>
      <trkpt lat="47.04052" lon="6.29032">
        <ele>713</ele>
        <time>2019-10-27T09:36:52+01:00</time>
      </trkpt>
      <trkpt lat="47.0404" lon="6.29019">
        <ele>709</ele>
        <time>2019-10-27T09:36:57+01:00</time>
      </trkpt>
      <trkpt lat="47.04021" lon="6.29009">
        <ele>706</ele>
        <time>2019-10-27T09:37:02+01:00</time>
      </trkpt>
      <trkpt lat="47.04007" lon="6.28996">
        <ele>702</ele>
        <time>2019-10-27T09:37:07+01:00</time>
      </trkpt>
      <trkpt lat="47.03993" lon="6.2899">
        <ele>700</ele>
        <time>2019-10-27T09:37:12+01:00</time>
      </trkpt>
      <trkpt lat="47.0398" lon="6.28983">
        <ele>695</ele>
        <time>2019-10-27T09:37:17+01:00</time>
      </trkpt>
      <trkpt lat="47.0397" lon="6.28976">
        <ele>692</ele>
        <time>2019-10-27T09:37:22+01:00</time>
      </trkpt>
      <trkpt lat="47.03939" lon="6.28976">
        <ele>689</ele>
        <time>2019-10-27T09:37:27+01:00</time>
      </trkpt>
      <trkpt lat="47.03902" lon="6.2905">
        <ele>698</ele>
        <time>2019-10-27T09:37:32+01:00</time>
      </trkpt>
      <trkpt lat="47.0392" lon="6.29014">
        <ele>693</ele>
        <time>2019-10-27T09:37:37+01:00</time>
      </trkpt>
      <trkpt lat="47.03934" lon="6.28987">
        <ele>691</ele>
        <time>2019-10-27T09:37:42+01:00</time>
      </trkpt>
      <trkpt lat="47.03935" lon="6.2894">
        <ele>683</ele>
        <time>2019-10-27T09:37:47+01:00</time>
      </trkpt>
      <trkpt lat="47.03973" lon="6.28946">
        <ele>684</ele>
        <time>2019-10-27T09:37:52+01:00</time>
      </trkpt>
      <trkpt lat="47.03972" lon="6.28917">
        <ele>676</ele>
        <time>2019-10-27T09:37:57+01:00</time>
      </trkpt>
      <trkpt lat="47.03982" lon="6.28897">
        <ele>669</ele>
        <time>2019-10-27T09:38:02+01:00</time>
      </trkpt>
      <trkpt lat="47.03972" lon="6.28881">
        <ele>666</ele>
        <time>2019-10-27T09:38:07+01:00</time>
      </trkpt>
      <trkpt lat="47.03984" lon="6.28856">
        <ele>655</ele>
        <time>2019-10-27T09:38:12+01:00</time>
      </trkpt>
      <trkpt lat="47.03992" lon="6.28824">
        <ele>641</ele>
        <time>2019-10-27T09:38:17+01:00</time>
      </trkpt>
      <trkpt lat="47.04014" lon="6.28837">
        <ele>639</ele>
        <time>2019-10-27T09:38:22+01:00</time>
      </trkpt>
      <trkpt lat="47.04037" lon="6.28856">
        <ele>640</ele>
        <time>2019-10-27T09:38:27+01:00</time>
      </trkpt>
      <trkpt lat="47.04032" lon="6.28832">
        <ele>630</ele>
        <time>2019-10-27T09:38:32+01:00</time>
      </trkpt>
      <trkpt lat="47.04028" lon="6.28808">
        <ele>622</ele>
        <time>2019-10-27T09:38:37+01:00</time>
      </trkpt>
      <trkpt lat="47.0404" lon="6.28807">
        <ele>618</ele>
        <time>2019-10-27T09:38:42+01:00</time>
      </trkpt>
      <trkpt lat="47.04028" lon="6.28786">
        <ele>614</ele>
        <time>2019-10-27T09:38:47+01:00</time>
      </trkpt>
      <trkpt lat="47.04019" lon="6.28768">
        <ele>610</ele>
        <time>2019-10-27T09:38:52+01:00</time>
      </trkpt>
      <trkpt lat="47.04018" lon="6.28732">
        <ele>596</ele>
        <time>2019-10-27T09:38:57+01:00</time>
      </trkpt>
      <trkpt lat="47.04031" lon="6.28715">
        <ele>584</ele>
        <time>2019-10-27T09:39:02+01:00</time>
      </trkpt>
      <trkpt lat="47.04023" lon="6.28686">
        <ele>574</ele>
        <time>2019-10-27T09:39:07+01:00</time>
      </trkpt>
      <trkpt lat="47.04019" lon="6.28667">
        <ele>568</ele>
        <time>2019-10-27T09:39:12+01:00</time>
      </trkpt>
      <trkpt lat="47.0402" lon="6.28637">
        <ele>559</ele>
        <time>2019-10-27T09:39:17+01:00</time>
      </trkpt>
      <trkpt lat="47.04015" lon="6.28602">
        <ele>551</ele>
        <time>2019-10-27T09:39:22+01:00</time>
      </trkpt>
      <trkpt lat="47.04014" lon="6.28561">
        <ele>542</ele>
        <time>2019-10-27T09:39:27+01:00</time>
      </trkpt>
      <trkpt lat="47.04018" lon="6.28519">
        <ele>533</ele>
        <time>2019-10-27T09:39:32+01:00</time>
      </trkpt>
      <trkpt lat="47.04009" lon="6.28484">
        <ele>526</ele>
        <time>2019-10-27T09:39:37+01:00</time>
      </trkpt>
      <trkpt lat="47.04007" lon="6.2845">
        <ele>517</ele>
        <time>2019-10-27T09:39:42+01:00</time>
      </trkpt>
      <trkpt lat="47.04007" lon="6.28388">
        <ele>500</ele>
        <time>2019-10-27T09:39:47+01:00</time>
      </trkpt>
      <trkpt lat="47.04019" lon="6.28353">
        <ele>490</ele>
        <time>2019-10-27T09:39:52+01:00</time>
      </trkpt>
      <trkpt lat="47.04037" lon="6.28331">
        <ele>486</ele>
        <time>2019-10-27T09:39:57+01:00</time>
      </trkpt>
      <trkpt lat="47.04061" lon="6.28235">
        <ele>469</ele>
        <time>2019-10-27T09:40:02+01:00</time>
      </trkpt>
      <trkpt lat="47.04087" lon="6.28151">
        <ele>458</ele>
        <time>2019-10-27T09:40:07+01:00</time>
      </trkpt>
      <trkpt lat="47.04082" lon="6.28105">
        <ele>449</ele>
        <time>2019-10-27T09:40:12+01:00</time>
      </trkpt>
      <trkpt lat="47.04053" lon="6.28083">
        <ele>445</ele>
        <time>2019-10-27T09:40:17+01:00</time>
      </trkpt>
      <trkpt lat="47.04054" lon="6.28045">
        <ele>443</ele>
        <time>2019-10-27T09:40:22+01:00</time>
      </trkpt>
      <trkpt lat="47.04063" lon="6.28004">
        <ele>441</ele>
        <time>2019-10-27T09:40:27+01:00</time>
      </trkpt>
      <trkpt lat="47.04062" lon="6.28003">
        <ele>441</ele>
        <time>2019-10-27T09:40:32+01:00</time>
      </trkpt>
      <trkpt lat="47.04063" lon="6.28004">
        <ele>441</ele>
        <time>2019-10-27T09:40:37+01:00</time>
      </trkpt>
      <trkpt lat="47.04049" lon="6.27994">
        <ele>440</ele>
        <time>2019-10-27T09:40:42+01:00</time>
      </trkpt>
      <trkpt lat="47.0402" lon="6.27983">
        <ele>437</ele>
        <time>2019-10-27T09:40:47+01:00</time>
      </trkpt>
      <trkpt lat="47.04009" lon="6.2798">
        <ele>435</ele>
        <time>2019-10-27T09:40:52+01:00</time>
      </trkpt>
      <trkpt lat="47.04002" lon="6.27947">
        <ele>434</ele>
        <time>2019-10-27T09:40:57+01:00</time>
      </trkpt>
      <trkpt lat="47.03987" lon="6.27896">
        <ele>432</ele>
        <time>2019-10-27T09:41:02+01:00</time>
      </trkpt>
      <trkpt lat="47.03952" lon="6.27784">
        <ele>426</ele>
        <time>2019-10-27T09:41:07+01:00</time>
      </trkpt>
      <trkpt lat="47.03918" lon="6.2767">
        <ele>420</ele>
        <time>2019-10-27T09:41:12+01:00</time>
      </trkpt>
      <trkpt lat="47.03896" lon="6.27596">
        <ele>418</ele>
        <time>2019-10-27T09:41:17+01:00</time>
      </trkpt>
      <trkpt lat="47.03883" lon="6.2755">
        <ele>416</ele>
        <time>2019-10-27T09:41:22+01:00</time>
      </trkpt>
      <trkpt lat="47.03889" lon="6.27549">
        <ele>418</ele>
        <time>2019-10-27T09:41:27+01:00</time>
      </trkpt>
      <trkpt lat="47.03905" lon="6.27553">
        <ele>421</ele>
        <time>2019-10-27T09:41:32+01:00</time>
      </trkpt>
      <trkpt lat="47.03919" lon="6.27554">
        <ele>423</ele>
        <time>2019-10-27T09:41:37+01:00</time>
      </trkpt>
      <trkpt lat="47.03927" lon="6.27551">
        <ele>424</ele>
        <time>2019-10-27T09:41:42+01:00</time>
      </trkpt>
      <trkpt lat="47.03939" lon="6.27538">
        <ele>425</ele>
        <time>2019-10-27T09:41:47+01:00</time>
      </trkpt>
      <trkpt lat="47.03945" lon="6.27519">
        <ele>426</ele>
        <time>2019-10-27T09:41:52+01:00</time>
      </trkpt>
      <trkpt lat="47.03917" lon="6.27499">
        <ele>424</ele>
        <time>2019-10-27T09:41:57+01:00</time>
      </trkpt>
      <trkpt lat="47.03937" lon="6.27466">
        <ele>424</ele>
        <time>2019-10-27T09:42:02+01:00</time>
      </trkpt>
      <trkpt lat="47.0395" lon="6.27441">
        <ele>425</ele>
        <time>2019-10-27T09:42:07+01:00</time>
      </trkpt>
      <trkpt lat="47.03958" lon="6.27423">
        <ele>426</ele>
        <time>2019-10-27T09:42:12+01:00</time>
      </trkpt>
      <trkpt lat="47.0401" lon="6.27417">
        <ele>432</ele>
        <time>2019-10-27T09:42:17+01:00</time>
      </trkpt>
      <trkpt lat="47.04052" lon="6.27405">
        <ele>435</ele>
        <time>2019-10-27T09:42:22+01:00</time>
      </trkpt>
      <trkpt lat="47.0405" lon="6.27424">
        <ele>435</ele>
        <time>2019-10-27T09:42:27+01:00</time>
      </trkpt>
      <trkpt lat="47.04029" lon="6.27503">
        <ele>433</ele>
        <time>2019-10-27T09:42:32+01:00</time>
      </trkpt>
      <trkpt lat="47.04016" lon="6.27505">
        <ele>432</ele>
        <time>2019-10-27T09:42:37+01:00</time>
      </trkpt>
      <trkpt lat="47.0402" lon="6.27566">
        <ele>435</ele>
        <time>2019-10-27T09:42:42+01:00</time>
      </trkpt>
      <trkpt lat="47.04016" lon="6.27506">
        <ele>432</ele>
        <time>2019-10-27T09:42:47+01:00</time>
      </trkpt>
      <trkpt lat="47.03993" lon="6.27508">
        <ele>430</ele>
        <time>2019-10-27T09:42:52+01:00</time>
      </trkpt>
      <trkpt lat="47.03986" lon="6.27511">
        <ele>429</ele>
        <time>2019-10-27T09:42:57+01:00</time>
      </trkpt>
      <trkpt lat="47.03986" lon="6.27522">
        <ele>429</ele>
        <time>2019-10-27T09:43:02+01:00</time>
      </trkpt>
      <trkpt lat="47.03988" lon="6.2755">
        <ele>430</ele>
        <time>2019-10-27T09:43:07+01:00</time>
      </trkpt>
      <trkpt lat="47.03987" lon="6.27522">
        <ele>429</ele>
        <time>2019-10-27T09:43:12+01:00</time>
      </trkpt>
      <trkpt lat="47.03986" lon="6.2751">
        <ele>429</ele>
        <time>2019-10-27T09:43:17+01:00</time>
      </trkpt>
      <trkpt lat="47.03993" lon="6.27509">
        <ele>430</ele>
        <time>2019-10-27T09:43:22+01:00</time>
      </trkpt>
      <trkpt lat="47.04029" lon="6.27503">
        <ele>433</ele>
        <time>2019-10-27T09:43:27+01:00</time>
      </trkpt>
      <trkpt lat="47.04051" lon="6.27421">
        <ele>435</ele>
        <time>2019-10-27T09:43:32+01:00</time>
      </trkpt>
      <trkpt lat="47.04052" lon="6.27406">
        <ele>435</ele>
        <time>2019-10-27T09:43:37+01:00</time>
      </trkpt>
      <trkpt lat="47.04099" lon="6.27365">
        <ele>443</ele>
        <time>2019-10-27T09:43:42+01:00</time>
      </trkpt>
      <trkpt lat="47.0411" lon="6.27314">
        <ele>446</ele>
        <time>2019-10-27T09:43:47+01:00</time>
      </trkpt>
      <trkpt lat="47.04116" lon="6.27236">
        <ele>446</ele>
        <time>2019-10-27T09:43:52+01:00</time>
      </trkpt>
      <trkpt lat="47.04122" lon="6.27193">
        <ele>446</ele>
        <time>2019-10-27T09:43:57+01:00</time>
      </trkpt>
      <trkpt lat="47.04115" lon="6.27156">
        <ele>444</ele>
        <time>2019-10-27T09:44:02+01:00</time>
      </trkpt>
      <trkpt lat="47.04108" lon="6.27065">
        <ele>447</ele>
        <time>2019-10-27T09:44:07+01:00</time>
      </trkpt>
      <trkpt lat="47.04105" lon="6.27031">
        <ele>449</ele>
        <time>2019-10-27T09:44:12+01:00</time>
      </trkpt>
      <trkpt lat="47.04106" lon="6.26963">
        <ele>454</ele>
        <time>2019-10-27T09:44:17+01:00</time>
      </trkpt>
      <trkpt lat="47.04106" lon="6.26887">
        <ele>459</ele>
        <time>2019-10-27T09:44:22+01:00</time>
      </trkpt>
      <trkpt lat="47.04112" lon="6.26853">
        <ele>465</ele>
        <time>2019-10-27T09:44:27+01:00</time>
      </trkpt>
      <trkpt lat="47.04116" lon="6.26807">
        <ele>469</ele>
        <time>2019-10-27T09:44:32+01:00</time>
      </trkpt>
      <trkpt lat="47.04081" lon="6.26812">
        <ele>457</ele>
        <time>2019-10-27T09:44:37+01:00</time>
      </trkpt>
      <trkpt lat="47.04054" lon="6.26812">
        <ele>449</ele>
        <time>2019-10-27T09:44:42+01:00</time>
      </trkpt>
      <trkpt lat="47.04035" lon="6.26789">
        <ele>447</ele>
        <time>2019-10-27T09:44:47+01:00</time>
      </trkpt>
      <trkpt lat="47.04029" lon="6.26769">
        <ele>448</ele>
        <time>2019-10-27T09:44:52+01:00</time>
      </trkpt>
      <trkpt lat="47.04005" lon="6.2672">
        <ele>448</ele>
        <time>2019-10-27T09:44:57+01:00</time>
      </trkpt>
      <trkpt lat="47.03987" lon="6.26638">
        <ele>444</ele>
        <time>2019-10-27T09:45:02+01:00</time>
      </trkpt>
      <trkpt lat="47.04001" lon="6.26602">
        <ele>449</ele>
        <time>2019-10-27T09:45:07+01:00</time>
      </trkpt>
      <trkpt lat="47.04004" lon="6.26582">
        <ele>449</ele>
        <time>2019-10-27T09:45:12+01:00</time>
      </trkpt>
      <trkpt lat="47.04019" lon="6.26556">
        <ele>449</ele>
        <time>2019-10-27T09:45:17+01:00</time>
      </trkpt>
      <trkpt lat="47.04026" lon="6.26535">
        <ele>448</ele>
        <time>2019-10-27T09:45:22+01:00</time>
      </trkpt>
      <trkpt lat="47.04044" lon="6.265">
        <ele>448</ele>
        <time>2019-10-27T09:45:27+01:00</time>
      </trkpt>
      <trkpt lat="47.04082" lon="6.2649">
        <ele>455</ele>
        <time>2019-10-27T09:45:32+01:00</time>
      </trkpt>
      <trkpt lat="47.04103" lon="6.26512">
        <ele>459</ele>
        <time>2019-10-27T09:45:37+01:00</time>
      </trkpt>
      <trkpt lat="47.0411" lon="6.2656">
        <ele>466</ele>
        <time>2019-10-27T09:45:42+01:00</time>
      </trkpt>
      <trkpt lat="47.04118" lon="6.26579">
        <ele>469</ele>
        <time>2019-10-27T09:45:47+01:00</time>
      </trkpt>
      <trkpt lat="47.04132" lon="6.26567">
        <ele>467</ele>
        <time>2019-10-27T09:45:52+01:00</time>
      </trkpt>
      <trkpt lat="47.04145" lon="6.26551">
        <ele>464</ele>
        <time>2019-10-27T09:45:57+01:00</time>
      </trkpt>
      <trkpt lat="47.04155" lon="6.26543">
        <ele>463</ele>
        <time>2019-10-27T09:46:02+01:00</time>
      </trkpt>
      <trkpt lat="47.04167" lon="6.26532">
        <ele>460</ele>
        <time>2019-10-27T09:46:07+01:00</time>
      </trkpt>
      <trkpt lat="47.04178" lon="6.26527">
        <ele>460</ele>
        <time>2019-10-27T09:46:12+01:00</time>
      </trkpt>
      <trkpt lat="47.04194" lon="6.26524">
        <ele>461</ele>
        <time>2019-10-27T09:46:17+01:00</time>
      </trkpt>
      <trkpt lat="47.0421" lon="6.26524">
        <ele>462</ele>
        <time>2019-10-27T09:46:22+01:00</time>
      </trkpt>
      <trkpt lat="47.04227" lon="6.2652">
        <ele>462</ele>
        <time>2019-10-27T09:46:27+01:00</time>
      </trkpt>
      <trkpt lat="47.04242" lon="6.2651">
        <ele>461</ele>
        <time>2019-10-27T09:46:32+01:00</time>
      </trkpt>
      <trkpt lat="47.04249" lon="6.26496">
        <ele>459</ele>
        <time>2019-10-27T09:46:37+01:00</time>
      </trkpt>
      <trkpt lat="47.04253" lon="6.26468">
        <ele>455</ele>
        <time>2019-10-27T09:46:42+01:00</time>
      </trkpt>
      <trkpt lat="47.04258" lon="6.2645">
        <ele>454</ele>
        <time>2019-10-27T09:46:47+01:00</time>
      </trkpt>
      <trkpt lat="47.04293" lon="6.26399">
        <ele>454</ele>
        <time>2019-10-27T09:46:52+01:00</time>
      </trkpt>
      <trkpt lat="47.04305" lon="6.2638">
        <ele>455</ele>
        <time>2019-10-27T09:46:57+01:00</time>
      </trkpt>
      <trkpt lat="47.04327" lon="6.2636">
        <ele>457</ele>
        <time>2019-10-27T09:47:02+01:00</time>
      </trkpt>
      <trkpt lat="47.0434" lon="6.26346">
        <ele>458</ele>
        <time>2019-10-27T09:47:07+01:00</time>
      </trkpt>
      <trkpt lat="47.04344" lon="6.26328">
        <ele>458</ele>
        <time>2019-10-27T09:47:12+01:00</time>
      </trkpt>
      <trkpt lat="47.04338" lon="6.26272">
        <ele>460</ele>
        <time>2019-10-27T09:47:17+01:00</time>
      </trkpt>
      <trkpt lat="47.04334" lon="6.26238">
        <ele>461</ele>
        <time>2019-10-27T09:47:22+01:00</time>
      </trkpt>
      <trkpt lat="47.04337" lon="6.26213">
        <ele>462</ele>
        <time>2019-10-27T09:47:27+01:00</time>
      </trkpt>
      <trkpt lat="47.0434" lon="6.26203">
        <ele>463</ele>
        <time>2019-10-27T09:47:32+01:00</time>
      </trkpt>
      <trkpt lat="47.04337" lon="6.26187">
        <ele>462</ele>
        <time>2019-10-27T09:47:37+01:00</time>
      </trkpt>
      <trkpt lat="47.04335" lon="6.26168">
        <ele>462</ele>
        <time>2019-10-27T09:47:42+01:00</time>
      </trkpt>
      <trkpt lat="47.04334" lon="6.26132">
        <ele>464</ele>
        <time>2019-10-27T09:47:47+01:00</time>
      </trkpt>
      <trkpt lat="47.0433" lon="6.26079">
        <ele>465</ele>
        <time>2019-10-27T09:47:52+01:00</time>
      </trkpt>
      <trkpt lat="47.04325" lon="6.26047">
        <ele>465</ele>
        <time>2019-10-27T09:47:57+01:00</time>
      </trkpt>
      <trkpt lat="47.04317" lon="6.26022">
        <ele>464</ele>
        <time>2019-10-27T09:48:02+01:00</time>
      </trkpt>
      <trkpt lat="47.04313" lon="6.26">
        <ele>469</ele>
        <time>2019-10-27T09:48:07+01:00</time>
      </trkpt>
      <trkpt lat="47.04304" lon="6.25952">
        <ele>461</ele>
        <time>2019-10-27T09:48:12+01:00</time>
      </trkpt>
      <trkpt lat="47.04299" lon="6.25885">
        <ele>462</ele>
        <time>2019-10-27T09:48:17+01:00</time>
      </trkpt>
      <trkpt lat="47.0429" lon="6.25811">
        <ele>462</ele>
        <time>2019-10-27T09:48:22+01:00</time>
      </trkpt>
      <trkpt lat="47.04292" lon="6.25749">
        <ele>460</ele>
        <time>2019-10-27T09:48:27+01:00</time>
      </trkpt>
      <trkpt lat="47.04297" lon="6.25708">
        <ele>459</ele>
        <time>2019-10-27T09:48:32+01:00</time>
      </trkpt>
      <trkpt lat="47.04304" lon="6.25685">
        <ele>461</ele>
        <time>2019-10-27T09:48:37+01:00</time>
      </trkpt>
      <trkpt lat="47.04307" lon="6.25659">
        <ele>461</ele>
        <time>2019-10-27T09:48:42+01:00</time>
      </trkpt>
      <trkpt lat="47.04308" lon="6.25612">
        <ele>454</ele>
        <time>2019-10-27T09:48:47+01:00</time>
      </trkpt>
      <trkpt lat="47.04312" lon="6.25602">
        <ele>455</ele>
        <time>2019-10-27T09:48:52+01:00</time>
      </trkpt>
      <trkpt lat="47.04331" lon="6.25578">
        <ele>463</ele>
        <time>2019-10-27T09:48:57+01:00</time>
      </trkpt>
      <trkpt lat="47.04339" lon="6.25534">
        <ele>458</ele>
        <time>2019-10-27T09:49:02+01:00</time>
      </trkpt>
      <trkpt lat="47.04344" lon="6.25481">
        <ele>450</ele>
        <time>2019-10-27T09:49:07+01:00</time>
      </trkpt>
      <trkpt lat="47.04346" lon="6.25427">
        <ele>441</ele>
        <time>2019-10-27T09:49:12+01:00</time>
      </trkpt>
      <trkpt lat="47.04347" lon="6.25353">
        <ele>425</ele>
        <time>2019-10-27T09:49:17+01:00</time>
      </trkpt>
      <trkpt lat="47.04352" lon="6.25326">
        <ele>421</ele>
        <time>2019-10-27T09:49:22+01:00</time>
      </trkpt>
      <trkpt lat="47.04355" lon="6.25303">
        <ele>418</ele>
        <time>2019-10-27T09:49:27+01:00</time>
      </trkpt>
      <trkpt lat="47.04363" lon="6.25284">
        <ele>416</ele>
        <time>2019-10-27T09:49:32+01:00</time>
      </trkpt>
      <trkpt lat="47.044" lon="6.25204">
        <ele>411</ele>
        <time>2019-10-27T09:49:37+01:00</time>
      </trkpt>
      <trkpt lat="47.04413" lon="6.25164">
        <ele>407</ele>
        <time>2019-10-27T09:49:42+01:00</time>
      </trkpt>
      <trkpt lat="47.04417" lon="6.25147">
        <ele>406</ele>
        <time>2019-10-27T09:49:47+01:00</time>
      </trkpt>
      <trkpt lat="47.04418" lon="6.25132">
        <ele>405</ele>
        <time>2019-10-27T09:49:52+01:00</time>
      </trkpt>
      <trkpt lat="47.04425" lon="6.25101">
        <ele>404</ele>
        <time>2019-10-27T09:49:57+01:00</time>
      </trkpt>
      <trkpt lat="47.04434" lon="6.25078">
        <ele>404</ele>
        <time>2019-10-27T09:50:02+01:00</time>
      </trkpt>
      <trkpt lat="47.04443" lon="6.25057">
        <ele>405</ele>
        <time>2019-10-27T09:50:07+01:00</time>
      </trkpt>
      <trkpt lat="47.04455" lon="6.25021">
        <ele>404</ele>
        <time>2019-10-27T09:50:12+01:00</time>
      </trkpt>
      <trkpt lat="47.04472" lon="6.24966">
        <ele>403</ele>
        <time>2019-10-27T09:50:17+01:00</time>
      </trkpt>
      <trkpt lat="47.04483" lon="6.24944">
        <ele>403</ele>
        <time>2019-10-27T09:50:22+01:00</time>
      </trkpt>
      <trkpt lat="47.04498" lon="6.24925">
        <ele>405</ele>
        <time>2019-10-27T09:50:27+01:00</time>
      </trkpt>
      <trkpt lat="47.04516" lon="6.24895">
        <ele>408</ele>
        <time>2019-10-27T09:50:32+01:00</time>
      </trkpt>
      <trkpt lat="47.04526" lon="6.24868">
        <ele>409</ele>
        <time>2019-10-27T09:50:37+01:00</time>
      </trkpt>
      <trkpt lat="47.04532" lon="6.24849">
        <ele>408</ele>
        <time>2019-10-27T09:50:42+01:00</time>
      </trkpt>
      <trkpt lat="47.04529" lon="6.2484">
        <ele>406</ele>
        <time>2019-10-27T09:50:47+01:00</time>
      </trkpt>
      <trkpt lat="47.04516" lon="6.24819">
        <ele>402</ele>
        <time>2019-10-27T09:50:52+01:00</time>
      </trkpt>
      <trkpt lat="47.04507" lon="6.24854">
        <ele>402</ele>
        <time>2019-10-27T09:50:57+01:00</time>
      </trkpt>
      <trkpt lat="47.04516" lon="6.24819">
        <ele>402</ele>
        <time>2019-10-27T09:51:02+01:00</time>
      </trkpt>
      <trkpt lat="47.04506" lon="6.248">
        <ele>400</ele>
        <time>2019-10-27T09:51:07+01:00</time>
      </trkpt>
      <trkpt lat="47.04491" lon="6.24784">
        <ele>396</ele>
        <time>2019-10-27T09:51:12+01:00</time>
      </trkpt>
      <trkpt lat="47.04479" lon="6.24779">
        <ele>392</ele>
        <time>2019-10-27T09:51:17+01:00</time>
      </trkpt>
      <trkpt lat="47.04475" lon="6.2478">
        <ele>391</ele>
        <time>2019-10-27T09:51:22+01:00</time>
      </trkpt>
      <trkpt lat="47.04467" lon="6.24784">
        <ele>389</ele>
        <time>2019-10-27T09:51:27+01:00</time>
      </trkpt>
      <trkpt lat="47.04461" lon="6.24794">
        <ele>387</ele>
        <time>2019-10-27T09:51:32+01:00</time>
      </trkpt>
      <trkpt lat="47.0446" lon="6.24806">
        <ele>387</ele>
        <time>2019-10-27T09:51:37+01:00</time>
      </trkpt>
      <trkpt lat="47.04459" lon="6.24821">
        <ele>386</ele>
        <time>2019-10-27T09:51:42+01:00</time>
      </trkpt>
      <trkpt lat="47.04455" lon="6.24816">
        <ele>385</ele>
        <time>2019-10-27T09:51:47+01:00</time>
      </trkpt>
      <trkpt lat="47.04452" lon="6.248">
        <ele>384</ele>
        <time>2019-10-27T09:51:52+01:00</time>
      </trkpt>
      <trkpt lat="47.04443" lon="6.24755">
        <ele>381</ele>
        <time>2019-10-27T09:51:57+01:00</time>
      </trkpt>
      <trkpt lat="47.04437" lon="6.24752">
        <ele>380</ele>
        <time>2019-10-27T09:52:02+01:00</time>
      </trkpt>
      <trkpt lat="47.04437" lon="6.24778">
        <ele>380</ele>
        <time>2019-10-27T09:52:07+01:00</time>
      </trkpt>
      <trkpt lat="47.04436" lon="6.24825">
        <ele>379</ele>
        <time>2019-10-27T09:52:12+01:00</time>
      </trkpt>
      <trkpt lat="47.04429" lon="6.24874">
        <ele>378</ele>
        <time>2019-10-27T09:52:17+01:00</time>
      </trkpt>
      <trkpt lat="47.04418" lon="6.24912">
        <ele>375</ele>
        <time>2019-10-27T09:52:22+01:00</time>
      </trkpt>
      <trkpt lat="47.04381" lon="6.24976">
        <ele>380</ele>
        <time>2019-10-27T09:52:27+01:00</time>
      </trkpt>
      <trkpt lat="47.04361" lon="6.2501">
        <ele>378</ele>
        <time>2019-10-27T09:52:32+01:00</time>
      </trkpt>
      <trkpt lat="47.04345" lon="6.24978">
        <ele>378</ele>
        <time>2019-10-27T09:52:37+01:00</time>
      </trkpt>
      <trkpt lat="47.04333" lon="6.24951">
        <ele>383</ele>
        <time>2019-10-27T09:52:42+01:00</time>
      </trkpt>
      <trkpt lat="47.04348" lon="6.24922">
        <ele>386</ele>
        <time>2019-10-27T09:52:47+01:00</time>
      </trkpt>
      <trkpt lat="47.04352" lon="6.24927">
        <ele>385</ele>
        <time>2019-10-27T09:52:52+01:00</time>
      </trkpt>
    </trkseg>
  </trk>
</gpx>